Time;durP1;ratioP1;P1;durP2;ratioP2;P2;SDS_P1;SDS_P2;PMS_P1;PMS_P2;Temp;Humidity;BMP_temperature;BMP_pressure;BME280_temperature;BME280_humidity;BME280_pressure;Samples;Min_cycle;Max_cycle;Signal;HPM_P1;HPM_P2
2022/10/14 00:00:54;;;;;;;;;;;;;;;66.15;0.00;100780.03;5081045;27;19968;-60
2022/10/14 00:03:20;;;;;;;;;;;;;;;66.35;0.00;100779.53;5095977;27;20395;-60
2022/10/14 00:05:47;;;;;;;;;;;;;;;63.55;0.18;100776.88;5082754;27;20396;-60
2022/10/14 00:08:14;;;;;;;;;;;;;;;62.15;0.00;100780.94;5098016;27;19919;-60
2022/10/14 00:10:40;;;;;;;;;;;;;;;61.89;0.14;100776.91;5126614;27;19919;-60
2022/10/14 00:13:07;;;;;;;;;;;;;;;61.23;0.46;100767.78;5112509;27;19930;-60
2022/10/14 00:15:37;;;;;;;;;;;;;;;60.81;1.04;100771.22;5106410;27;19964;-60
2022/10/14 00:18:04;;;;;;;;;;;;;;;59.70;1.27;100769.25;5103725;27;19919;-60
2022/10/14 00:20:30;;;;;;;;;;;;;;;57.99;1.34;100760.88;5080911;27;19924;-60
2022/10/14 00:22:56;;;;;;;;;;;;;;;58.36;1.29;100770.72;5102072;27;20039;-60
2022/10/14 00:25:25;;;;;;;;;;;;;;;57.82;2.42;100761.66;5128635;27;20370;-60
2022/10/14 00:27:51;;;;;;;;;;;;;;;58.15;1.82;100764.47;5094446;27;19927;-59
2022/10/14 00:30:17;;;;;;;;;;;;;;;58.59;2.29;100759.47;5091749;27;19955;-60
2022/10/14 00:32:44;;;;;;;;;;;;;;;58.76;1.57;100752.06;5090977;27;19946;-60
2022/10/14 00:35:10;;;;;;;;;;;;;;;58.65;2.11;100757.06;5110113;27;19915;-60
2022/10/14 00:37:37;;;;;;;;;;;;;;;58.40;2.32;100759.34;5090935;27;20007;-60
2022/10/14 00:40:04;;;;;;;;;;;;;;;57.79;2.27;100754.06;5090360;27;19940;-60
2022/10/14 00:42:32;;;;;;;;;;;;;;;57.12;2.78;100765.63;5097790;27;19919;-60
2022/10/14 00:45:06;;;;;;;;;;;;;;;56.26;2.73;100754.06;5094184;27;19924;-60
2022/10/14 00:47:34;;;;;;;;;;;;;;;55.67;3.40;100763.81;5089942;27;19972;-61
2022/10/14 00:50:02;;;;;;;;;;;;;;;55.52;2.77;100763.00;5101378;27;20400;-60
2022/10/14 00:52:29;;;;;;;;;;;;;;;55.16;3.00;100763.91;5121697;27;19919;-60
2022/10/14 00:55:04;;;;;;;;;;;;;;;55.04;3.54;100762.69;5066908;27;19921;-60
2022/10/14 00:57:31;;;;;;;;;;;;;;;54.94;2.83;100767.47;5123229;27;19921;-60
2022/10/14 01:00:01;;;;;;;;;;;;;;;54.72;3.08;100768.97;5067306;27;20015;-60
2022/10/14 01:02:28;;;;;;;;;;;;;;;54.58;3.70;100768.28;5049377;28;19960;-60
2022/10/14 01:04:55;;;;;;;;;;;;;;;54.41;3.51;100768.78;5134914;27;19934;-60
2022/10/14 01:07:38;;;;;;;;;;;;;;;54.36;4.01;100769.72;5072493;27;20041;-61
2022/10/14 01:10:16;;;;;;;;;;;;;;;54.15;3.94;100763.94;5101739;27;19917;-60
2022/10/14 01:13:05;;;;;;;;;;;;;;;53.98;3.73;100764.38;5065939;27;20423;-60
2022/10/14 01:15:32;;;;;;;;;;;;;;;53.86;4.25;100768.16;5065517;27;19921;-60
2022/10/14 01:18:04;;;;;;;;;;;;;;;53.60;3.68;100763.25;5065225;27;19917;-60
2022/10/14 01:20:42;;;;;;;;;;;;;;;53.27;3.75;100768.53;5114792;27;20381;-60
2022/10/14 01:23:12;;;;;;;;;;;;;;;52.96;3.86;100778.19;5121722;27;19971;-60
2022/10/14 01:26:03;;;;;;;;;;;;;;;52.86;4.12;100777.13;5124793;27;20016;-60
2022/10/14 01:28:40;;;;;;;;;;;;;;;52.78;3.97;100780.69;5105443;27;20002;-60
2022/10/14 01:31:09;;;;;;;;;;;;;;;52.79;4.25;100782.28;5090567;27;19961;-60
2022/10/14 01:33:40;;;;;;;;;;;;;;;52.73;4.47;100775.78;5084302;27;19925;-60
2022/10/14 01:36:06;;;;;;;;;;;;;;;52.68;4.72;100781.69;5108057;27;19964;-61
2022/10/14 01:38:59;;;;;;;;;;;;;;;52.62;4.86;100778.16;5105469;27;19912;-59
2022/10/14 01:41:28;;;;;;;;;;;;;;;52.37;4.75;100783.38;5076403;27;19929;-59
2022/10/14 01:43:57;;;;;;;;;;;;;;;52.28;4.44;100778.03;5083855;27;19917;-60
2022/10/14 01:46:24;;;;;;;;;;;;;;;52.06;4.39;100785.00;5129661;27;20614;-60
2022/10/14 01:48:54;;;;;;;;;;;;;;;52.12;4.54;100780.69;5076763;27;19915;-61
2022/10/14 01:51:26;;;;;;;;;;;;;;;52.15;4.94;100776.66;5039414;27;20091;-62
2022/10/14 01:53:57;;;;;;;;;;;;;;;52.18;5.21;100786.38;5048117;27;19997;-60
2022/10/14 01:56:27;;;;;;;;;;;;;;;52.12;4.43;100795.19;5052778;27;20313;-59
2022/10/14 01:58:54;;;;;;;;;;;;;;;51.95;5.36;100792.56;5045046;27;19925;-62
2022/10/14 02:01:20;;;;;;;;;;;;;;;51.92;5.17;100782.06;5048743;27;20007;-61
2022/10/14 02:03:47;;;;;;;;;;;;;;;51.85;5.46;100782.72;5042166;27;19928;-61
2022/10/14 02:06:21;;;;;;;;;;;;;;;51.69;4.70;100792.44;5036368;27;19921;-60
2022/10/14 02:08:54;;;;;;;;;;;;;;;51.60;5.11;100795.78;5054299;27;19944;-59
2022/10/14 02:11:21;;;;;;;;;;;;;;;51.52;4.92;100791.94;5043222;27;19921;-60
2022/10/14 02:14:00;;;;;;;;;;;;;;;51.37;4.88;100792.47;5045535;27;20019;-60
2022/10/14 02:16:48;;;;;;;;;;;;;;;51.29;4.99;100788.59;5044897;27;19921;-60
2022/10/14 02:19:24;;;;;;;;;;;;;;;51.24;5.63;100795.25;5041124;27;19947;-60
2022/10/14 02:22:03;;;;;;;;;;;;;;;51.18;5.49;100794.56;5037189;27;19925;-59
2022/10/14 02:24:30;;;;;;;;;;;;;;;51.04;5.48;100794.47;5043268;27;19953;-59
2022/10/14 02:26:59;;;;;;;;;;;;;;;51.05;5.44;100798.16;5041730;27;19921;-60
2022/10/14 02:29:27;;;;;;;;;;;;;;;51.01;5.40;100795.56;5040275;27;19921;-59
2022/10/14 02:31:53;;;;;;;;;;;;;;;50.93;5.51;100800.38;5039805;27;19928;-60
2022/10/14 02:34:22;;;;;;;;;;;;;;;50.87;5.97;100799.69;5040896;27;19924;-60
2022/10/14 02:36:48;;;;;;;;;;;;;;;50.89;5.72;100796.25;5047421;27;19921;-59
2022/10/14 02:39:18;;;;;;;;;;;;;;;50.89;5.95;100797.03;5047970;27;20360;-60
2022/10/14 02:41:44;;;;;;;;;;;;;;;50.95;6.02;100791.16;5049854;27;20620;-60
2022/10/14 02:44:10;;;;;;;;;;;;;;;50.78;5.62;100797.94;5049389;27;19924;-59
2022/10/14 02:46:38;;;;;;;;;;;;;;;50.67;5.73;100797.28;5050427;27;20396;-60
2022/10/14 02:49:07;;;;;;;;;;;;;;;50.71;6.06;100797.78;5049398;27;19928;-60
2022/10/14 02:51:35;;;;;;;;;;;;;;;50.61;6.24;100802.34;5049446;27;19916;-60
2022/10/14 02:54:01;;;;;;;;;;;;;;;50.35;6.48;100803.69;5049688;27;19985;-60
2022/10/14 02:56:28;;;;;;;;;;;;;;;50.30;6.58;100806.63;5050276;27;20512;-60
2022/10/14 02:58:54;;;;;;;;;;;;;;;50.20;6.44;100809.09;5050148;27;19921;-61
2022/10/14 03:01:22;;;;;;;;;;;;;;;50.44;6.37;100814.88;5049921;27;20058;-60
2022/10/14 03:03:48;;;;;;;;;;;;;;;50.44;5.98;100814.88;5046392;27;19974;-60
2022/10/14 03:06:14;;;;;;;;;;;;;;;50.31;6.07;100803.19;5048632;27;19925;-60
2022/10/14 03:08:41;;;;;;;;;;;;;;;50.40;5.92;100814.41;5050550;27;19935;-59
2022/10/14 03:11:08;;;;;;;;;;;;;;;50.34;6.39;100810.03;5043012;27;19917;-60
2022/10/14 03:13:36;;;;;;;;;;;;;;;50.20;6.49;100809.09;5039124;27;20012;-60
2022/10/14 03:16:02;;;;;;;;;;;;;;;50.10;6.40;100807.88;5035313;27;19928;-62
2022/10/14 03:18:30;;;;;;;;;;;;;;;50.19;6.30;100802.50;5040258;27;19928;-61
2022/10/14 03:21:02;;;;;;;;;;;;;;;50.07;5.86;100801.06;5037663;27;19921;-60
2022/10/14 03:23:35;;;;;;;;;;;;;;;50.08;6.08;100804.72;5038270;27;20360;-59
2022/10/14 03:26:02;;;;;;;;;;;;;;;49.89;5.99;100802.50;5034563;27;20305;-60
2022/10/14 03:28:34;;;;;;;;;;;;;;;49.91;6.16;100808.53;5041556;27;19921;-60
2022/10/14 03:31:09;;;;;;;;;;;;;;;49.77;6.85;100806.81;5039810;27;20405;-60
2022/10/14 03:33:54;;;;;;;;;;;;;;;49.65;6.68;100802.44;5037320;27;19921;-60
2022/10/14 03:36:21;;;;;;;;;;;;;;;49.80;6.22;100805.75;5037005;27;19921;-60
2022/10/14 03:38:53;;;;;;;;;;;;;;;49.74;6.56;100805.00;5038827;27;20242;-61
2022/10/14 03:41:43;;;;;;;;;;;;;;;49.57;7.01;100813.00;5037401;27;19917;-60
2022/10/14 03:44:12;;;;;;;;;;;;;;;49.38;6.59;100809.16;5041788;27;19927;-62
2022/10/14 03:46:44;;;;;;;;;;;;;;;49.24;6.59;100808.19;5034918;27;19917;-61
2022/10/14 03:49:11;;;;;;;;;;;;;;;49.32;6.65;100812.09;5038651;27;19925;-62
2022/10/14 03:51:37;;;;;;;;;;;;;;;49.18;6.68;100813.97;5039485;27;19941;-61
2022/10/14 03:54:16;;;;;;;;;;;;;;;49.30;6.80;100806.06;5038847;27;20023;-62
2022/10/14 03:56:43;;;;;;;;;;;;;;;49.28;6.76;100809.47;5051417;27;19917;-61
2022/10/14 03:59:11;;;;;;;;;;;;;;;49.14;6.80;100804.81;5041293;27;19961;-61
2022/10/14 04:01:38;;;;;;;;;;;;;;;49.19;7.04;100806.88;5034834;27;19971;-62
2022/10/14 04:04:19;;;;;;;;;;;;;;;48.97;7.51;100804.13;5039548;27;20007;-62
2022/10/14 04:06:46;;;;;;;;;;;;;;;49.03;7.44;100804.91;5022427;28;19927;-61
2022/10/14 04:09:14;;;;;;;;;;;;;;;48.96;7.02;100805.44;5039800;27;19937;-61
2022/10/14 04:11:41;;;;;;;;;;;;;;;48.93;7.38;100794.94;5038455;27;19928;-61
2022/10/14 04:14:13;;;;;;;;;;;;;;;48.83;7.67;100808.09;5041146;27;19922;-61
2022/10/14 04:16:47;;;;;;;;;;;;;;;48.72;7.75;100815.50;5041571;27;19921;-61
2022/10/14 04:19:14;;;;;;;;;;;;;;;48.43;7.38;100813.19;5034606;27;19944;-61
2022/10/14 04:21:41;;;;;;;;;;;;;;;48.63;7.50;100820.75;5038839;27;19924;-61
2022/10/14 04:24:09;;;;;;;;;;;;;;;48.55;7.67;100826.28;5035022;27;19921;-61
2022/10/14 04:26:41;;;;;;;;;;;;;;;48.84;7.92;100816.25;5044191;27;19921;-62
2022/10/14 04:29:14;;;;;;;;;;;;;;;48.92;7.30;100814.34;5034061;27;20354;-60
2022/10/14 04:31:50;;;;;;;;;;;;;;;48.90;7.60;100821.97;5034572;27;20423;-61
2022/10/14 04:34:18;;;;;;;;;;;;;;;48.86;7.38;100824.38;5037231;27;20383;-61
2022/10/14 04:36:44;;;;;;;;;;;;;;;48.72;8.17;100821.25;5024672;28;19917;-61
2022/10/14 04:39:22;;;;;;;;;;;;;;;48.68;8.23;100820.75;5057273;27;19966;-62
2022/10/14 04:41:48;;;;;;;;;;;;;;;48.70;8.09;100815.25;5047857;27;19932;-62
2022/10/14 04:44:18;;;;;;;;;;;;;;;48.70;7.96;100829.66;5036518;27;20024;-61
2022/10/14 04:46:49;;;;;;;;;;;;;;;48.68;8.33;100825.75;5045511;27;19928;-61
2022/10/14 04:49:17;;;;;;;;;;;;;;;48.64;8.03;100819.44;5047035;27;19921;-61
2022/10/14 04:51:52;;;;;;;;;;;;;;;48.47;8.58;100831.00;5094004;27;19920;-62
2022/10/14 04:54:27;;;;;;;;;;;;;;;48.36;8.20;100823.16;5131819;27;19920;-61
2022/10/14 04:56:56;;;;;;;;;;;;;;;48.28;8.37;100821.34;5131066;27;20274;-61
2022/10/14 04:59:23;;;;;;;;;;;;;;;48.60;8.58;100824.69;5089495;28;19919;-61
2022/10/14 05:02:15;;;;;;;;;;;;;;;48.33;8.26;100823.44;5087667;28;19921;-61
2022/10/14 05:04:58;;;;;;;;;;;;;;;48.32;8.49;100828.44;5082205;28;20382;-63
2022/10/14 05:07:25;;;;;;;;;;;;;;;48.14;8.94;100832.59;5052500;27;19925;-61
2022/10/14 05:09:58;;;;;;;;;;;;;;;48.10;8.82;100834.16;5040314;27;20120;-61
2022/10/14 05:12:33;;;;;;;;;;;;;;;48.28;8.42;100827.09;5130376;28;20369;-62
2022/10/14 05:15:02;;;;;;;;;;;;;;;48.41;8.76;100824.47;5131273;28;20052;-62
2022/10/14 05:17:36;;;;;;;;;;;;;;;48.40;8.41;100817.13;5131682;27;19923;-62
2022/10/14 05:20:05;;;;;;;;;;;;;;;48.31;8.42;100820.31;5130156;28;19919;-61
2022/10/14 05:22:32;;;;;;;;;;;;;;;48.34;8.43;100813.47;5133219;27;20437;-62
2022/10/14 05:24:59;;;;;;;;;;;;;;;48.29;8.84;100822.91;5132558;27;19919;-62
2022/10/14 05:27:26;;;;;;;;;;;;;;;48.29;8.79;100829.44;5132764;27;19923;-62
2022/10/14 05:29:53;;;;;;;;;;;;;;;48.16;8.63;100819.75;5130472;28;19919;-62
2022/10/14 05:32:20;;;;;;;;;;;;;;;48.06;9.16;100825.00;5130246;27;19916;-60
2022/10/14 05:34:49;;;;;;;;;;;;;;;48.00;8.70;100819.25;5130586;27;20381;-62
2022/10/14 05:37:24;;;;;;;;;;;;;;;47.94;8.99;100815.59;5130580;27;19915;-62
2022/10/14 05:39:54;;;;;;;;;;;;;;;47.97;8.92;100814.53;5130432;27;19919;-62
2022/10/14 05:42:23;;;;;;;;;;;;;;;47.50;9.13;100816.28;5130710;27;20274;-62
2022/10/14 05:44:53;;;;;;;;;;;;;;;47.34;9.19;100812.03;5132123;28;19926;-62
2022/10/14 05:47:19;;;;;;;;;;;;;;;47.69;8.90;100813.69;5132488;28;19912;-62
2022/10/14 05:49:49;;;;;;;;;;;;;;;47.68;9.38;100804.28;5132447;27;20335;-62
2022/10/14 05:52:16;;;;;;;;;;;;;;;47.64;9.36;100803.75;5132415;27;20018;-62
2022/10/14 05:54:43;;;;;;;;;;;;;;;47.82;9.15;100799.56;5132336;28;19923;-62
2022/10/14 05:57:12;;;;;;;;;;;;;;;47.91;8.77;100805.09;5132534;28;20293;-62
2022/10/14 05:59:38;;;;;;;;;;;;;;;47.93;9.24;100804.56;5133638;27;19920;-62
2022/10/14 06:02:05;;;;;;;;;;;;;;;47.95;9.12;100805.63;5132462;28;19922;-62
2022/10/14 06:04:33;;;;;;;;;;;;;;;47.89;9.07;100796.19;5135522;27;20081;-62
2022/10/14 06:07:02;;;;;;;;;;;;;;;47.68;9.33;100800.59;5136119;27;20052;-62
2022/10/14 06:09:29;;;;;;;;;;;;;;;47.52;9.64;100797.19;5136374;27;19920;-62
2022/10/14 06:11:56;;;;;;;;;;;;;;;46.73;10.33;100806.00;5135854;27;19919;-62
2022/10/14 06:14:22;;;;;;;;;;;;;;;46.07;10.35;100790.66;5137222;27;19919;-62
2022/10/14 06:16:50;;;;;;;;;;;;;;;46.78;9.84;100791.69;5135936;27;20277;-62
2022/10/14 06:19:17;;;;;;;;;;;;;;;46.88;9.76;100795.13;5135951;27;20373;-62
2022/10/14 06:21:46;;;;;;;;;;;;;;;46.48;10.56;100790.44;5137147;27;19916;-62
2022/10/14 06:24:12;;;;;;;;;;;;;;;45.28;11.13;100792.00;5136874;27;19920;-62
2022/10/14 06:26:39;;;;;;;;;;;;;;;44.81;11.77;100796.03;5137041;27;19926;-62
2022/10/14 06:29:05;;;;;;;;;;;;;;;44.10;12.36;100795.25;5136906;27;19968;-62
2022/10/14 06:31:31;;;;;;;;;;;;;;;44.47;12.16;100789.81;5136745;27;19922;-61
2022/10/14 06:33:58;;;;;;;;;;;;;;;45.36;11.08;100778.75;5136922;27;19926;-62
2022/10/14 06:36:24;;;;;;;;;;;;;;;44.97;11.59;100780.38;5136899;27;19923;-62
2022/10/14 06:38:51;;;;;;;;;;;;;;;44.94;11.46;100773.56;5136698;27;19919;-61
2022/10/14 06:41:17;;;;;;;;;;;;;;;45.43;10.83;100781.19;5137189;27;19915;-62
2022/10/14 06:43:43;;;;;;;;;;;;;;;44.84;11.72;100777.81;5136669;27;19919;-61
2022/10/14 06:46:09;;;;;;;;;;;;;;;45.24;10.84;100779.09;5136952;27;19923;-62
2022/10/14 06:48:36;;;;;;;;;;;;;;;45.70;10.69;100761.88;5136582;27;19983;-62
2022/10/14 06:51:02;;;;;;;;;;;;;;;45.70;10.79;100768.41;5136623;27;19919;-62
2022/10/14 06:53:29;;;;;;;;;;;;;;;46.02;10.21;100762.69;5136640;27;19927;-62
2022/10/14 06:55:59;;;;;;;;;;;;;;;46.17;10.07;100756.78;5136547;27;20284;-62
2022/10/14 06:58:26;;;;;;;;;;;;;;;46.62;10.03;100766.47;5136352;27;19920;-61
2022/10/14 07:00:52;;;;;;;;;;;;;;;46.17;10.02;100757.56;5136401;27;19938;-61
2022/10/14 07:03:18;;;;;;;;;;;;;;;46.56;9.47;100757.81;5136432;27;19927;-62
2022/10/14 07:05:44;;;;;;;;;;;;;;;46.34;10.02;100755.59;5136180;27;20338;-61
2022/10/14 07:08:11;;;;;;;;;;;;;;;46.63;9.28;100750.78;5134756;27;20292;-61
2022/10/14 07:10:37;;;;;;;;;;;;;;;46.64;9.14;100746.59;5136032;27;19916;-62
2022/10/14 07:13:03;;;;;;;;;;;;;;;46.40;9.31;100749.09;5135974;27;20273;-62
2022/10/14 07:15:29;;;;;;;;;;;;;;;46.36;9.31;100746.44;5135328;27;19915;-62
2022/10/14 07:17:56;;;;;;;;;;;;;;;45.20;10.13;100742.81;5136032;27;19919;-62
2022/10/14 07:20:22;;;;;;;;;;;;;;;45.59;10.23;100739.56;5136188;27;19915;-62
2022/10/14 07:22:48;;;;;;;;;;;;;;;45.73;9.41;100744.41;5136124;27;20000;-61
2022/10/14 07:25:15;;;;;;;;;;;;;;;45.75;9.99;100736.06;5135554;27;20342;-62
2022/10/14 07:27:41;;;;;;;;;;;;;;;45.62;9.70;100738.56;5135947;27;19920;-61
2022/10/14 07:30:07;;;;;;;;;;;;;;;45.57;10.14;100730.66;5135792;27;20411;-61
2022/10/14 07:32:35;;;;;;;;;;;;;;;45.03;10.18;100733.22;5135450;27;19934;-62
2022/10/14 07:35:02;;;;;;;;;;;;;;;44.49;10.17;100732.81;5135485;27;19927;-62
2022/10/14 07:37:28;;;;;;;;;;;;;;;44.73;10.49;100731.81;5135414;27;20014;-62
2022/10/14 07:39:54;;;;;;;;;;;;;;;44.93;9.74;100734.69;5132501;27;19931;-62
2022/10/14 07:42:21;;;;;;;;;;;;;;;44.97;9.69;100732.38;5135339;27;20377;-62
2022/10/14 07:44:47;;;;;;;;;;;;;;;44.92;9.63;100733.13;5135534;27;19915;-62
2022/10/14 07:47:13;;;;;;;;;;;;;;;44.77;10.29;100736.03;5134373;27;20285;-60
2022/10/14 07:49:40;;;;;;;;;;;;;;;45.56;9.22;100729.09;5135241;27;20010;-61
2022/10/14 07:52:06;;;;;;;;;;;;;;;45.32;9.65;100725.75;5135031;27;19930;-60
2022/10/14 07:54:32;;;;;;;;;;;;;;;43.86;11.31;100729.50;5135103;27;19938;-60
2022/10/14 07:56:59;;;;;;;;;;;;;;;43.73;11.41;100729.00;5135357;27;20416;-60
2022/10/14 07:59:25;;;;;;;;;;;;;;;44.57;10.58;100713.91;5135208;27;20301;-60
2022/10/14 08:01:52;;;;;;;;;;;;;;;44.71;10.85;100723.72;5135415;27;19923;-60
2022/10/14 08:04:19;;;;;;;;;;;;;;;44.84;10.34;100714.72;5135278;27;19915;-60
2022/10/14 08:06:48;;;;;;;;;;;;;;;45.02;10.34;100725.91;5135004;27;20005;-60
2022/10/14 08:09:15;;;;;;;;;;;;;;;45.36;10.52;100712.72;5133725;27;19923;-60
2022/10/14 08:11:42;;;;;;;;;;;;;;;44.53;10.98;100724.81;5134901;27;20061;-60
2022/10/14 08:14:08;;;;;;;;;;;;;;;45.70;10.36;100719.59;5135012;27;19921;-60
2022/10/14 08:16:35;;;;;;;;;;;;;;;45.13;10.40;100720.31;5134872;27;20354;-60
2022/10/14 08:19:04;;;;;;;;;;;;;;;45.76;9.88;100725.34;5134837;27;20003;-60
2022/10/14 08:21:30;;;;;;;;;;;;;;;45.85;10.11;100719.44;5134727;27;19920;-60
2022/10/14 08:23:57;;;;;;;;;;;;;;;46.11;10.02;100722.25;5134502;27;19926;-60
2022/10/14 08:26:26;;;;;;;;;;;;;;;46.34;9.37;100721.09;5134634;27;19919;-60
2022/10/14 08:28:52;;;;;;;;;;;;;;;46.08;10.13;100718.31;5134796;27;19915;-60
2022/10/14 08:31:19;;;;;;;;;;;;;;;45.89;9.72;100719.97;5134716;27;20031;-60
2022/10/14 08:33:45;;;;;;;;;;;;;;;45.06;10.30;100728.56;5134540;27;20283;-60
2022/10/14 08:36:12;;;;;;;;;;;;;;;45.70;10.16;100722.44;5134438;27;19915;-60
2022/10/14 08:38:38;;;;;;;;;;;;;;;45.07;10.25;100727.28;5134566;27;19916;-61
2022/10/14 08:41:14;;;;;;;;;;;;;;;44.85;10.95;100716.31;5134542;27;20364;-60
2022/10/14 08:43:47;;;;;;;;;;;;;;;44.06;11.23;100722.22;5134328;27;20013;-61
2022/10/14 08:46:26;;;;;;;;;;;;;;;43.82;11.26;100722.41;5134494;27;20002;-61
2022/10/14 08:48:58;;;;;;;;;;;;;;;44.17;11.25;100731.00;5134422;27;20014;-61
2022/10/14 08:51:26;;;;;;;;;;;;;;;44.43;11.13;100723.31;5134353;27;20373;-61
2022/10/14 08:53:56;;;;;;;;;;;;;;;44.59;11.14;100730.59;5134141;27;19916;-61
2022/10/14 08:56:23;;;;;;;;;;;;;;;44.85;11.22;100727.78;5134495;27;19959;-61
2022/10/14 08:58:51;;;;;;;;;;;;;;;45.35;10.42;100724.72;5134439;27;19923;-61
2022/10/14 09:01:21;;;;;;;;;;;;;;;45.14;11.15;100730.50;5134729;27;19920;-61
2022/10/14 09:03:47;;;;;;;;;;;;;;;45.46;10.79;100728.50;5134696;27;19923;-61
2022/10/14 09:06:40;;;;;;;;;;;;;;;45.51;10.93;100729.84;5134376;27;19930;-61
2022/10/14 09:09:08;;;;;;;;;;;;;;;45.44;10.72;100733.16;5132506;27;19915;-61
2022/10/14 09:11:40;;;;;;;;;;;;;;;45.59;10.99;100733.81;5132967;28;20277;-61
2022/10/14 09:14:08;;;;;;;;;;;;;;;45.73;10.77;100727.16;5134324;28;19923;-61
2022/10/14 09:16:36;;;;;;;;;;;;;;;45.64;10.49;100732.34;5134226;28;20365;-61
2022/10/14 09:19:04;;;;;;;;;;;;;;;45.52;11.06;100728.53;5134301;28;20372;-61
2022/10/14 09:21:37;;;;;;;;;;;;;;;45.29;11.07;100739.03;5134313;28;19915;-60
2022/10/14 09:24:12;;;;;;;;;;;;;;;45.52;11.05;100733.50;5133900;27;19920;-60
2022/10/14 09:26:40;;;;;;;;;;;;;;;45.56;10.98;100734.81;5134262;27;19919;-60
2022/10/14 09:29:20;;;;;;;;;;;;;;;45.17;11.20;100738.09;5134235;28;20030;-61
2022/10/14 09:31:47;;;;;;;;;;;;;;;44.65;11.54;100733.53;5134085;28;19930;-61
2022/10/14 09:34:17;;;;;;;;;;;;;;;44.76;11.14;100725.88;5134242;27;19968;-61
2022/10/14 09:36:45;;;;;;;;;;;;;;;45.16;10.92;100725.03;5109189;28;20300;-61
2022/10/14 09:39:12;;;;;;;;;;;;;;;44.83;11.23;100724.63;5100641;27;20012;-61
2022/10/14 09:41:38;;;;;;;;;;;;;;;44.94;11.67;100726.88;5053582;27;20368;-61
2022/10/14 09:44:21;;;;;;;;;;;;;;;44.40;11.69;100720.66;5054033;28;19924;-61
2022/10/14 09:47:04;;;;;;;;;;;;;;;44.34;11.52;100711.97;5053223;28;19921;-61
2022/10/14 09:49:46;;;;;;;;;;;;;;;44.29;11.48;100716.34;5053313;28;19921;-61
2022/10/14 09:52:22;;;;;;;;;;;;;;;44.13;11.79;100719.75;5053195;28;19927;-61
2022/10/14 09:54:57;;;;;;;;;;;;;;;44.64;11.42;100709.00;5053120;28;20301;-62
2022/10/14 09:57:24;;;;;;;;;;;;;;;44.25;11.83;100709.25;5053175;28;19921;-61
2022/10/14 09:59:54;;;;;;;;;;;;;;;44.45;11.82;100715.00;5053059;28;19916;-61
2022/10/14 10:02:41;;;;;;;;;;;;;;;44.46;11.44;100701.47;5053210;28;20375;-61
2022/10/14 10:05:12;;;;;;;;;;;;;;;44.43;11.55;100702.47;5053087;27;19931;-61
2022/10/14 10:07:38;;;;;;;;;;;;;;;44.64;11.47;100704.06;5052964;28;19946;-61
2022/10/14 10:10:18;;;;;;;;;;;;;;;44.78;11.50;100700.34;5052898;28;20011;-62
2022/10/14 10:12:46;;;;;;;;;;;;;;;44.80;11.55;100692.00;5053018;27;20362;-61
2022/10/14 10:15:20;;;;;;;;;;;;;;;44.68;11.56;100683.78;5053007;28;20278;-61
2022/10/14 10:17:47;;;;;;;;;;;;;;;44.81;11.01;100687.06;5052965;28;19948;-62
2022/10/14 10:20:32;;;;;;;;;;;;;;;44.85;11.39;100676.16;5052748;28;19917;-61
2022/10/14 10:23:17;;;;;;;;;;;;;;;44.66;11.45;100674.88;5052869;28;19921;-61
2022/10/14 10:25:43;;;;;;;;;;;;;;;44.43;11.79;100674.59;5052648;28;20392;-61
2022/10/14 10:28:25;;;;;;;;;;;;;;;44.10;11.88;100674.94;5052583;28;19973;-61
2022/10/14 10:31:01;;;;;;;;;;;;;;;44.35;11.48;100667.72;5052915;28;19921;-61
2022/10/14 10:33:33;;;;;;;;;;;;;;;44.37;11.57;100676.59;5052532;28;19928;-61
2022/10/14 10:36:17;;;;;;;;;;;;;;;43.83;12.02;100670.34;5052792;28;20312;-61
2022/10/14 10:39:03;;;;;;;;;;;;;;;43.53;12.19;100671.66;5052253;28;19921;-61
2022/10/14 10:41:30;;;;;;;;;;;;;;;44.19;11.58;100665.41;5045202;28;19927;-61
2022/10/14 10:44:24;;;;;;;;;;;;;;;44.37;11.67;100667.22;5052490;28;19917;-61
2022/10/14 10:47:13;;;;;;;;;;;;;;;44.19;11.35;100671.94;5052557;28;19925;-61
2022/10/14 10:49:42;;;;;;;;;;;;;;;44.10;11.71;100671.28;5051103;28;19935;-61
2022/10/14 10:52:22;;;;;;;;;;;;;;;44.23;11.14;100668.84;5052360;28;19916;-61
2022/10/14 10:54:48;;;;;;;;;;;;;;;43.99;11.65;100666.13;5052395;28;19920;-61
2022/10/14 10:57:29;;;;;;;;;;;;;;;44.11;11.51;100664.25;5052271;28;19924;-61
2022/10/14 10:59:58;;;;;;;;;;;;;;;43.56;11.68;100659.19;5052184;28;19973;-61
2022/10/14 11:02:33;;;;;;;;;;;;;;;43.92;11.30;100658.75;5052139;28;19995;-61
2022/10/14 11:05:14;;;;;;;;;;;;;;;43.82;11.28;100647.94;5052175;28;20275;-61
2022/10/14 11:13:49;;;;;;;;;;;;;;;44.00;11.29;100654.19;5052028;28;19920;-61
2022/10/14 11:16:35;;;;;;;;;;;;;;;44.15;10.86;100653.34;5052050;28;19924;-61
2022/10/14 11:19:20;;;;;;;;;;;;;;;44.23;10.67;100651.66;5051848;28;20011;-61
2022/10/14 11:21:51;;;;;;;;;;;;;;;44.15;10.93;100653.34;5051987;28;19973;-61
2022/10/14 11:24:26;;;;;;;;;;;;;;;44.17;10.87;100653.66;5051672;28;19969;-61
2022/10/14 11:26:54;;;;;;;;;;;;;;;43.96;11.14;100658.53;5051867;28;19921;-61
2022/10/14 11:29:30;;;;;;;;;;;;;;;43.92;11.27;100658.75;5051694;28;20016;-61
2022/10/14 11:32:14;;;;;;;;;;;;;;;43.87;11.42;100662.31;5051685;28;19921;-61
2022/10/14 11:34:41;;;;;;;;;;;;;;;43.62;11.72;100666.59;5051781;28;19921;-61
2022/10/14 11:37:22;;;;;;;;;;;;;;;43.78;11.24;100665.31;5051581;28;19928;-61
2022/10/14 11:39:52;;;;;;;;;;;;;;;43.77;11.51;100660.06;5051829;28;19920;-61
2022/10/14 11:42:38;;;;;;;;;;;;;;;43.79;11.60;100661.16;5051495;28;20302;-61
2022/10/14 11:45:23;;;;;;;;;;;;;;;43.78;11.42;100667.38;5051633;28;19925;-61
2022/10/14 11:48:07;;;;;;;;;;;;;;;43.70;11.33;100664.94;5051420;28;19963;-60
2022/10/14 11:50:38;;;;;;;;;;;;;;;43.64;11.38;100669.75;5051474;28;19920;-61
2022/10/14 11:53:20;;;;;;;;;;;;;;;43.63;11.71;100664.50;5051102;28;20281;-61
2022/10/14 11:55:51;;;;;;;;;;;;;;;43.63;11.57;100668.19;5051338;28;19921;-61
2022/10/14 11:58:22;;;;;;;;;;;;;;;43.78;11.32;100664.50;5051422;28;20370;-60
2022/10/14 12:00:50;;;;;;;;;;;;;;;43.71;11.49;100672.25;5050789;28;19921;-61
2022/10/14 12:03:20;;;;;;;;;;;;;;;43.69;11.57;100668.28;5049982;28;20466;-61
2022/10/14 12:05:49;;;;;;;;;;;;;;;43.66;12.10;100681.50;5051164;28;20390;-61
2022/10/14 12:08:24;;;;;;;;;;;;;;;43.51;11.95;100682.81;5050959;28;19921;-61
2022/10/14 12:10:57;;;;;;;;;;;;;;;43.56;11.72;100677.16;5051271;28;19921;-61
2022/10/14 12:13:40;;;;;;;;;;;;;;;43.26;12.08;100687.00;5051037;28;19921;-61
2022/10/14 12:16:10;;;;;;;;;;;;;;;43.21;12.32;100691.34;5051149;28;20044;-61
2022/10/14 12:18:36;;;;;;;;;;;;;;;43.35;11.77;100690.59;5050931;28;20049;-61
2022/10/14 12:21:23;;;;;;;;;;;;;;;43.29;12.17;100691.78;5050820;28;19925;-61
2022/10/14 12:23:53;;;;;;;;;;;;;;;43.35;12.00;100689.81;5050853;28;20261;-61
2022/10/14 12:26:19;;;;;;;;;;;;;;;43.31;11.93;100694.94;5050823;28;20007;-61
2022/10/14 12:28:46;;;;;;;;;;;;;;;43.30;11.94;100688.44;5050898;28;19917;-61
2022/10/14 12:31:27;;;;;;;;;;;;;;;43.29;12.15;100684.00;5062196;27;19917;-61
2022/10/14 12:34:17;;;;;;;;;;;;;;;43.31;12.10;100690.03;5050682;28;20015;-61
2022/10/14 12:36:45;;;;;;;;;;;;;;;43.33;12.08;100681.72;5050819;28;20008;-61
2022/10/14 12:39:18;;;;;;;;;;;;;;;43.29;12.13;100680.31;5050634;28;19917;-61
2022/10/14 12:41:54;;;;;;;;;;;;;;;43.08;12.35;100682.25;5050678;28;19928;-61
2022/10/14 12:44:22;;;;;;;;;;;;;;;42.94;12.35;100683.06;5050674;28;20288;-61
2022/10/14 12:46:51;;;;;;;;;;;;;;;43.07;12.29;100692.13;5050491;28;19924;-61
2022/10/14 12:49:28;;;;;;;;;;;;;;;43.12;12.27;100685.75;5050663;28;19936;-61
2022/10/14 12:51:56;;;;;;;;;;;;;;;43.27;12.48;100695.13;5049211;28;20400;-61
2022/10/14 12:54:24;;;;;;;;;;;;;;;43.30;12.09;100685.56;5050476;28;20364;-61
2022/10/14 12:57:04;;;;;;;;;;;;;;;43.15;12.34;100684.75;5050247;28;19921;-61
2022/10/14 12:59:35;;;;;;;;;;;;;;;43.04;12.44;100691.03;5050572;28;19921;-61
2022/10/14 13:02:17;;;;;;;;;;;;;;;43.01;12.53;100694.09;5050386;28;19928;-61
2022/10/14 13:04:48;;;;;;;;;;;;;;;42.91;12.57;100690.53;5050321;28;20427;-61
2022/10/14 13:07:17;;;;;;;;;;;;;;;42.98;12.39;100697.94;5050182;28;19944;-61